Time;durP1;ratioP1;P1;durP2;ratioP2;P2;SDS_P1;SDS_P2;PMS_P1;PMS_P2;Temp;Humidity;BMP_temperature;BMP_pressure;BME280_temperature;BME280_humidity;BME280_pressure;Samples;Min_cycle;Max_cycle;Signal;HPM_P1;HPM_P2
2024/03/19 00:02:26;;;;;;;21.55;12.48;;;;;;;;;;5070150;28;20051;-70
2024/03/19 00:05:31;;;;;;;24.50;13.45;;;;;;;;;;5069790;28;20047;-70
2024/03/19 00:08:35;;;;;;;24.42;13.52;;;;;;;;;;5070812;28;20044;-70
2024/03/19 00:11:39;;;;;;;26.17;13.82;;;;;;;;;;5070874;28;20404;-70
2024/03/19 00:14:44;;;;;;;26.40;13.93;;;;;;;;;;5070559;28;20056;-70
2024/03/19 00:17:48;;;;;;;28.45;14.63;;;;;;;;;;5070604;28;20396;-70
2024/03/19 00:20:52;;;;;;;24.67;14.13;;;;;;;;;;5070460;28;20047;-70
2024/03/19 00:23:57;;;;;;;27.67;13.35;;;;;;;;;;5070672;28;20044;-70
2024/03/19 00:27:01;;;;;;;27.23;13.60;;;;;;;;;;5069521;28;20060;-70
2024/03/19 00:30:10;;;;;;;21.83;12.85;;;;;;;;;;5070349;28;20511;-68
2024/03/19 00:33:14;;;;;;;19.00;10.00;;;;;;;;;;5070575;28;20051;-71
2024/03/19 00:36:19;;;;;;;20.20;11.35;;;;;;;;;;5070291;28;20056;-71
2024/03/19 00:39:28;;;;;;;18.85;11.30;;;;;;;;;;5070588;28;20388;-70
2024/03/19 00:42:32;;;;;;;13.85;9.90;;;;;;;;;;5070372;28;20515;-70
2024/03/19 00:45:36;;;;;;;17.55;11.30;;;;;;;;;;5070510;28;20037;-70
2024/03/19 00:48:40;;;;;;;15.00;9.23;;;;;;;;;;5070426;28;20507;-70
2024/03/19 00:51:45;;;;;;;24.02;9.75;;;;;;;;;;5069417;28;20036;-70
2024/03/19 00:54:49;;;;;;;11.82;6.55;;;;;;;;;;5070211;28;20041;-70
2024/03/19 00:57:54;;;;;;;14.07;6.68;;;;;;;;;;5070202;28;20040;-70
2024/03/19 01:00:58;;;;;;;14.65;6.00;;;;;;;;;;5069428;28;20513;-70
2024/03/19 01:04:06;;;;;;;12.25;6.18;;;;;;;;;;5070060;28;20044;-70
2024/03/19 01:07:10;;;;;;;13.95;6.65;;;;;;;;;;5057943;28;20044;-70
2024/03/19 01:10:14;;;;;;;13.50;5.82;;;;;;;;;;5069973;28;20415;-70
2024/03/19 01:13:19;;;;;;;15.35;5.53;;;;;;;;;;5070040;28;20047;-70
2024/03/19 01:16:23;;;;;;;11.95;5.68;;;;;;;;;;5069856;28;20516;-70
2024/03/19 01:19:27;;;;;;;16.20;4.13;;;;;;;;;;5073484;28;20032;-70
2024/03/19 01:22:32;;;;;;;13.23;3.63;;;;;;;;;;5073471;28;20139;-70
2024/03/19 01:25:37;;;;;;;12.43;3.63;;;;;;;;;;5073246;28;20059;-70
2024/03/19 01:28:41;;;;;;;12.20;2.90;;;;;;;;;;5073624;28;20044;-70
2024/03/19 01:31:45;;;;;;;18.38;3.13;;;;;;;;;;5073532;28;20041;-70
2024/03/19 01:34:50;;;;;;;11.55;2.90;;;;;;;;;;5073055;28;20523;-70
2024/03/19 01:37:55;;;;;;;12.13;3.70;;;;;;;;;;5073212;28;20032;-70
2024/03/19 01:40:59;;;;;;;12.50;4.97;;;;;;;;;;5073439;28;20044;-70
2024/03/19 01:44:04;;;;;;;21.45;8.80;;;;;;;;;;5073369;28;20047;-70
2024/03/19 01:47:08;;;;;;;15.45;8.63;;;;;;;;;;5073426;28;20392;-70
2024/03/19 01:50:14;;;;;;;14.35;8.50;;;;;;;;;;5073036;28;20041;-70
2024/03/19 01:53:18;;;;;;;15.90;8.40;;;;;;;;;;5072886;28;20036;-70
2024/03/19 01:56:23;;;;;;;13.85;7.95;;;;;;;;;;5073159;28;20037;-70
2024/03/19 01:59:27;;;;;;;14.70;7.90;;;;;;;;;;5072022;28;20033;-70
2024/03/19 02:02:36;;;;;;;20.40;8.70;;;15.70;99.90;;;;;;5072242;28;20047;-70
2024/03/19 02:05:40;;;;;;;18.20;8.70;;;;;;;;;;5072237;28;20067;-70
2024/03/19 02:09:00;;;;;;;21.45;8.25;;;15.50;99.90;;;;;;5072992;28;20492;-70
2024/03/19 02:12:04;;;;;;;16.48;8.00;;;;;;;;;;5072680;28;20094;-70
2024/03/19 02:15:10;;;;;;;18.88;8.75;;;;;;;;;;5071655;28;20063;-70
2024/03/19 02:18:14;;;;;;;18.75;8.43;;;;;;;;;;5072762;28;20036;-70
2024/03/19 02:21:18;;;;;;;22.88;9.40;;;;;;;;;;5072424;28;20048;-70
2024/03/19 02:24:23;;;;;;;16.73;9.02;;;;;;;;;;5072145;28;20447;-70
2024/03/19 02:27:27;;;;;;;22.20;9.30;;;;;;;;;;5071316;28;20064;-70
2024/03/19 02:30:31;;;;;;;17.98;8.98;;;;;;;;;;5071217;28;20037;-70
2024/03/19 02:33:35;;;;;;;17.70;8.60;;;;;;;;;;5071678;28;20029;-70
2024/03/19 02:36:40;;;;;;;13.98;8.48;;;;;;;;;;5072265;28;20523;-70
2024/03/19 02:39:44;;;;;;;16.23;8.75;;;;;;;;;;5071936;28;20384;-70
2024/03/19 02:42:49;;;;;;;22.35;8.32;;;;;;;;;;5072225;28;20044;-70
2024/03/19 02:45:53;;;;;;;17.40;8.77;;;;;;;;;;5072649;28;20039;-70
2024/03/19 02:48:58;;;;;;;18.13;8.75;;;;;;;;;;5071800;28;20036;-71
2024/03/19 02:52:02;;;;;;;15.88;8.30;;;;;;;;;;5071722;28;20047;-70
2024/03/19 02:55:06;;;;;;;19.52;8.68;;;;;;;;;;5071699;28;20408;-70
2024/03/19 02:58:10;;;;;;;19.63;8.50;;;;;;;;;;5071873;28;20052;-70
2024/03/19 03:01:15;;;;;;;16.85;8.15;;;;;;;;;;5071669;28;20032;-70
2024/03/19 03:04:19;;;;;;;19.25;8.93;;;;;;;;;;5071665;28;20036;-70
2024/03/19 03:07:24;;;;;;;15.95;8.20;;;;;;;;;;5071763;28;20036;-70
2024/03/19 03:10:28;;;;;;;19.10;9.18;;;15.20;99.90;;;;;;5071463;28;20474;-70
2024/03/19 03:13:33;;;;;;;19.80;8.68;;;;;;;;;;5071458;28;20590;-70
2024/03/19 03:16:37;;;;;;;16.15;7.65;;;;;;;;;;5070755;28;20159;-70
2024/03/19 03:19:41;;;;;;;15.88;8.45;;;;;;;;;;5071314;28;20649;-70
2024/03/19 03:22:47;;;;;;;15.13;8.77;;;;;;;;;;5070457;28;20033;-70
2024/03/19 03:25:51;;;;;;;18.02;8.95;;;;;;;;;;5071129;28;20052;-70
2024/03/19 03:28:55;;;;;;;20.90;9.02;;;;;;;;;;5071081;28;20041;-70
2024/03/19 03:32:00;;;;;;;17.27;9.00;;;;;;;;;;5071020;28;20040;-70
2024/03/19 03:35:04;;;;;;;18.10;9.18;;;;;;;;;;5070183;28;20044;-70
2024/03/19 03:38:09;;;;;;;19.08;8.30;;;;;;;;;;5070194;28;20028;-70
2024/03/19 03:41:14;;;;;;;20.73;9.55;;;;;;;;;;5070923;28;20059;-70
2024/03/19 03:44:18;;;;;;;18.85;7.93;;;;;;;;;;5070871;28;20043;-70
2024/03/19 03:47:22;;;;;;;21.50;9.15;;;;;;;;;;5070966;28;20033;-70
2024/03/19 03:50:26;;;;;;;16.05;8.63;;;;;;;;;;5070366;28;20040;-70
2024/03/19 03:53:30;;;;;;;16.33;8.02;;;;;;;;;;5070734;28;20036;-69
2024/03/19 03:56:35;;;;;;;17.55;8.45;;;;;;;;;;5071242;28;20040;-69
2024/03/19 03:59:41;;;;;;;17.75;8.77;;;15.30;99.90;;;;;;5071050;28;20509;-69
2024/03/19 04:02:47;;;;;;;20.27;8.02;;;14.50;99.90;;;;;;5070933;28;20039;-69
2024/03/19 04:05:52;;;;;;;20.85;9.07;;;;;;;;;;5070081;28;20036;-69
2024/03/19 04:08:56;;;;;;;20.13;8.90;;;;;;;;;;5058629;28;20044;-69
2024/03/19 04:12:00;;;;;;;16.70;8.50;;;;;;;;;;5070486;28;20392;-69
2024/03/19 04:15:11;;;;;;;17.45;9.55;;;15.10;99.90;;;;;;5070471;28;20049;-69
2024/03/19 04:18:15;;;;;;;17.73;9.07;;;;;;;;;;5070833;28;20583;-69
2024/03/19 04:21:21;;;;;;;18.45;9.63;;;;;;;;;;5070546;28;20051;-69
2024/03/19 04:24:26;;;;;;;19.10;9.30;;;;;;;;;;5070725;28;20032;-69
2024/03/19 04:27:30;;;;;;;26.98;9.73;;;;;;;;;;5070544;28;20056;-69
2024/03/19 04:30:34;;;;;;;23.73;9.18;;;;;;;;;;5070681;28;20032;-70
2024/03/19 04:33:38;;;;;;;22.10;10.00;;;;;;;;;;5070384;28;20096;-68
2024/03/19 04:36:43;;;;;;;19.30;9.65;;;;;;;;;;5070564;28;20503;-71
2024/03/19 04:39:48;;;;;;;17.67;9.82;;;;;;;;;;5070710;28;20043;-70
2024/03/19 04:42:52;;;;;;;18.15;8.68;;;;;;;;;;5069569;28;20400;-70
2024/03/19 04:45:56;;;;;;;18.52;9.05;;;;;;;;;;5070336;28;20041;-70
2024/03/19 04:49:01;;;;;;;18.20;8.95;;;;;;;;;;5070451;28;20048;-70
2024/03/19 04:52:05;;;;;;;22.85;9.70;;;;;;;;;;5070498;28;20060;-70
2024/03/19 04:55:12;;;;;;;19.75;8.10;;;;;;;;;;5073759;28;20040;-70
2024/03/19 04:58:17;;;;;;;20.00;9.52;;;;;;;;;;5073997;28;20036;-70
2024/03/19 05:01:21;;;;;;;21.05;10.00;;;;;;;;;;5073640;28;20037;-70
2024/03/19 05:04:25;;;;;;;14.68;8.95;;;;;;;;;;5073780;28;20044;-70
2024/03/19 05:07:30;;;;;;;22.38;9.70;;;;;;;;;;5073815;28;20055;-70
2024/03/19 05:10:34;;;;;;;17.67;9.18;;;;;;;;;;5073679;28;20051;-70
2024/03/19 05:13:39;;;;;;;21.80;9.73;;;;;;;;;;5073345;28;20043;-70
2024/03/19 05:16:43;;;;;;;22.55;10.80;;;;;;;;;;5073736;28;20075;-70
2024/03/19 05:19:47;;;;;;;21.45;11.05;;;;;;;;;;5073332;28;20396;-70
2024/03/19 05:22:52;;;;;;;22.83;10.63;;;;;;;;;;5073329;28;20107;-70
2024/03/19 05:25:56;;;;;;;21.38;11.38;;;;;;;;;;5073167;28;20043;-70
2024/03/19 05:29:00;;;;;;;19.30;11.13;;;;;;;;;;5073515;28;20051;-70
2024/03/19 05:32:05;;;;;;;18.05;9.68;;;;;;;;;;5073359;28;20047;-69
2024/03/19 05:35:09;;;;;;;24.30;9.85;;;;;;;;;;5073322;28;20254;-69
2024/03/19 05:38:14;;;;;;;25.48;11.20;;;;;;;;;;5072572;28;20425;-69
2024/03/19 05:41:18;;;;;;;25.52;11.40;;;;;;;;;;5073365;28;20198;-70
2024/03/19 05:44:23;;;;;;;29.98;11.38;;;;;;;;;;5073275;28;20651;-70
2024/03/19 05:47:28;;;;;;;22.92;11.70;;;;;;;;;;5073016;28;20231;-71
2024/03/19 05:50:32;;;;;;;20.90;11.35;;;;;;;;;;5073290;28;20586;-69
2024/03/19 05:53:37;;;;;;;20.80;11.15;;;15.10;99.90;;;;;;5073077;28;20045;-69
2024/03/19 05:56:42;;;;;;;25.13;11.65;;;;;;;;;;5072822;28;20482;-69
2024/03/19 05:59:47;;;;;;;26.85;10.60;;;;;;;;;;5073129;28;20036;-69
2024/03/19 06:02:54;;;;;;;22.02;9.18;;;14.90;99.90;;;;;;5071894;28;20499;-69
2024/03/19 06:06:10;;;;;;;18.67;9.02;;;;;;;;;;5073259;28;20036;-69
2024/03/19 06:09:15;;;;;;;18.10;8.60;;;;;;;;;;5072737;28;20036;-69
2024/03/19 06:12:19;;;;;;;18.45;7.90;;;;;;;;;;5073448;28;20033;-69
2024/03/19 06:15:24;;;;;;;16.02;7.15;;;;;;;;;;5072548;28;20051;-69
2024/03/19 06:18:29;;;;;;;13.18;6.60;;;;;;;;;;5072663;28;20039;-68
2024/03/19 06:21:33;;;;;;;11.32;5.45;;;;;;;;;;5071987;28;20051;-70
2024/03/19 06:24:37;;;;;;;12.10;4.00;;;;;;;;;;5071978;28;20037;-71
2024/03/19 06:27:41;;;;;;;7.20;2.15;;;;;;;;;;5072099;28;20052;-70
2024/03/19 06:30:46;;;;;;;4.40;1.90;;;;;;;;;;5071597;28;20044;-70
2024/03/19 06:33:50;;;;;;;4.55;1.30;;;;;;;;;;5072019;28;20048;-70
2024/03/19 06:36:54;;;;;;;4.63;1.92;;;;;;;;;;5072169;28;20369;-70
2024/03/19 06:39:58;;;;;;;2.40;1.08;;;;;;;;;;5072549;28;20033;-70
2024/03/19 06:43:05;;;;;;;3.85;0.75;;;;;;;;;;5070970;28;20037;-70
2024/03/19 06:46:11;;;;;;;1.60;0.80;;;;;;;;;;5071972;28;20630;-69
2024/03/19 06:49:16;;;;;;;2.50;1.00;;;;;;;;;;5071272;28;20037;-70
2024/03/19 06:52:20;;;;;;;2.75;1.10;;;;;;;;;;5071915;28;20055;-69
2024/03/19 06:55:24;;;;;;;2.38;1.17;;;;;;;;;;5071582;28;20056;-70
2024/03/19 06:58:28;;;;;;;7.18;1.20;;;;;;;;;;5071600;28;20033;-69
2024/03/19 07:01:33;;;;;;;5.55;1.88;;;15.40;99.90;;;;;;5059949;28;20045;-70
2024/03/19 07:04:38;;;;;;;10.20;2.17;;;;;;;;;;5071516;28;20044;-70
2024/03/19 07:07:42;;;;;;;11.88;2.00;;;;;;;;;;5071582;28;20056;-69
2024/03/19 07:10:47;;;;;;;9.38;1.50;;;;;;;;;;5071528;28;20385;-72
2024/03/19 07:13:51;;;;;;;10.20;1.25;;;;;;;;;;5071589;28;20381;-68
2024/03/19 07:16:55;;;;;;;12.20;1.70;;;;;;;;;;5071061;28;20048;-70
2024/03/19 07:20:00;;;;;;;9.50;1.60;;;;;;;;;;5071546;28;20040;-69
2024/03/19 07:23:05;;;;;;;3.50;1.25;;;;;;;;;;5071246;28;20036;-69
2024/03/19 07:26:10;;;;;;;12.50;2.70;;;;;;;;;;5071099;28;20048;-68
2024/03/19 07:29:15;;;;;;;6.43;1.92;;;;;;;;;;5071182;28;20053;-70
2024/03/19 07:32:19;;;;;;;4.28;2.10;;;;;;;;;;5070968;28;20040;-71
2024/03/19 07:35:23;;;;;;;8.50;2.45;;;;;;;;;;5070178;28;20052;-69
2024/03/19 07:38:28;;;;;;;6.60;2.17;;;;;;;;;;5070440;28;20052;-71
2024/03/19 07:41:32;;;;;;;8.52;2.45;;;;;;;;;;5070935;28;20480;-69
2024/03/19 07:44:38;;;;;;;9.75;3.25;;;;;;;;;;5070675;28;20044;-70
2024/03/19 07:47:43;;;;;;;17.20;3.42;;;;;;;;;;5070796;28;20040;-72
2024/03/19 07:50:48;;;;;;;10.48;1.98;;;;;;;;;;5058537;28;20410;-72
2024/03/19 07:53:52;;;;;;;5.10;1.55;;;;;;;;;;5069812;28;20051;-70
2024/03/19 07:56:56;;;;;;;8.38;1.45;;;;;;;;;;5071120;28;20045;-70
2024/03/19 08:00:09;;;;;;;13.35;1.50;;;;;;;;;;5070734;28;20040;-71
2024/03/19 08:03:14;;;;;;;1.67;0.63;;;;;;;;;;5070832;28;20040;-69
2024/03/19 08:06:18;;;;;;;6.78;0.70;;;;;;;;;;5070073;28;20041;-69
2024/03/19 08:09:22;;;;;;;2.58;0.60;;;;;;;;;;5070782;28;20044;-69
2024/03/19 08:12:27;;;;;;;1.77;0.70;;;;;;;;;;5070418;28;20032;-69
2024/03/19 08:15:32;;;;;;;1.50;0.40;;;15.90;95.00;;;;;;5070291;28;20049;-69
2024/03/19 08:18:37;;;;;;;2.22;0.82;;;;;;;;;;5069980;28;20039;-71
2024/03/19 08:21:41;;;;;;;7.82;0.80;;;;;;;;;;5070579;28;20036;-68
2024/03/19 08:24:46;;;;;;;1.02;0.50;;;;;;;;;;5070554;28;20045;-68
2024/03/19 08:27:51;;;;;;;1.17;0.60;;;;;;;;;;5070408;28;20120;-68
2024/03/19 08:30:56;;;;;;;2.90;0.80;;;;;;;;;;5074706;28;20040;-68
2024/03/19 08:34:01;;;;;;;5.78;0.80;;;18.10;92.80;;;;;;5074321;28;20037;-68
2024/03/19 08:37:06;;;;;;;1.00;0.50;;;;;;;;;;5073685;28;20055;-68
2024/03/19 08:40:11;;;;;;;8.20;2.13;;;;;;;;;;5074405;28;20048;-69
2024/03/19 08:43:15;;;;;;;4.68;0.98;;;;;;;;;;5073334;28;20048;-68
2024/03/19 08:46:20;;;;;;;5.82;0.90;;;;;;;;;;5072253;28;20040;-69
2024/03/19 08:49:24;;;;;;;3.67;0.82;;;;;;;;;;5072955;28;20040;-68
2024/03/19 08:52:29;;;;;;;2.50;0.70;;;;;;;;;;5073489;28;20048;-68
2024/03/19 08:55:36;;;;;;;2.00;0.70;;;;;;;;;;5072121;28;20053;-67
2024/03/19 08:58:40;;;;;;;1.60;0.60;;;;;;;;;;5061000;28;20044;-68
2024/03/19 09:01:45;;;;;;;1.73;0.85;;;;;;;;;;5073980;28;20040;-68
2024/03/19 09:04:49;;;;;;;4.45;0.60;;;;;;;;;;5073998;28;20036;-68
2024/03/19 09:07:53;;;;;;;2.88;0.70;;;;;;;;;;5072906;28;20606;-68
2024/03/19 09:10:58;;;;;;;6.30;1.00;;;;;;;;;;5073910;28;20032;-67
2024/03/19 09:14:03;;;;;;;1.45;0.70;;;;;;;;;;5073610;28;20036;-68
2024/03/19 09:17:06;;;;;;;1.33;0.57;;;;;;;;;;5073701;28;20044;-69
2024/03/19 09:20:11;;;;;;;3.80;1.38;;;;;;;;;;5073732;28;20471;-68
2024/03/19 09:23:17;;;;;;;0.52;0.50;;;;;;;;;;5072654;28;20044;-68
2024/03/19 09:26:21;;;;;;;0.93;0.60;;;;;;;;;;5073234;28;20048;-69
2024/03/19 09:29:25;;;;;;;3.67;0.70;;;;;;;;;;5073398;28;20033;-69
2024/03/19 09:32:30;;;;;;;7.85;0.98;;;;;;;;;;5072592;28;20160;-69
2024/03/19 09:35:34;;;;;;;0.70;0.70;;;;;;;;;;5073322;28;20052;-68
2024/03/19 09:38:38;;;;;;;3.72;0.80;;;;;;;;;;5071998;28;20032;-69
2024/03/19 09:41:42;;;;;;;1.83;0.80;;;;;;;;;;5073272;28;20496;-69
2024/03/19 09:44:47;;;;;;;6.20;1.35;;;;;;;;;;5073239;28;20040;-69
2024/03/19 09:47:52;;;;;;;1.88;0.80;;;;;;;;;;5072305;28;20037;-69
2024/03/19 09:50:57;;;;;;;2.50;0.80;;;19.00;90.50;;;;;;5073203;28;20041;-68
2024/03/19 09:54:02;;;;;;;1.63;0.70;;;19.30;90.50;;;;;;5072251;28;20048;-69
2024/03/19 09:57:17;;;;;;;4.10;1.13;;;19.50;90.30;;;;;;5072845;28;20047;-68
2024/03/19 10:00:27;;;;;;;1.50;0.77;;;19.60;90.40;;;;;;5072291;28;20511;-69
2024/03/19 10:03:31;;;;;;;2.00;0.80;;;;;;;;;;5072104;28;20514;-68
2024/03/19 10:06:36;;;;;;;2.72;0.80;;;20.00;90.10;;;;;;5073043;28;20362;-69
2024/03/19 10:09:44;;;;;;;3.08;1.38;;;19.90;90.80;;;;;;5072106;28;20047;-69
2024/03/19 10:12:49;;;;;;;6.22;0.95;;;;;;;;;;5071824;28;20044;-69
2024/03/19 10:15:53;;;;;;;3.88;1.17;;;;;;;;;;5072583;28;20049;-70
2024/03/19 10:18:58;;;;;;;5.85;0.80;;;;;;;;;;5072795;28;20048;-69
2024/03/19 10:22:03;;;;;;;2.47;0.70;;;;;;;;;;5072517;28;20037;-70
2024/03/19 10:25:08;;;;;;;3.83;1.30;;;;;;;;;;5071663;28;20037;-69
2024/03/19 10:28:16;;;;;;;1.20;1.10;;;;;;;;;;5072509;28;20044;-69
2024/03/19 10:31:21;;;;;;;1.58;0.70;;;;;;;;;;5071656;28;20480;-70
2024/03/19 10:34:25;;;;;;;1.63;0.80;;;;;;;;;;5071659;28;20480;-69
2024/03/19 10:37:31;;;;;;;3.10;0.93;;;20.70;88.30;;;;;;5072514;28;20048;-69
2024/03/19 10:40:35;;;;;;;2.40;0.75;;;;;;;;;;5071356;28;20043;-69
2024/03/19 10:43:41;;;;;;;2.03;0.90;;;20.40;87.30;;;;;;5072096;28;20052;-70
2024/03/19 10:46:46;;;;;;;3.83;1.08;;;19.90;87.80;;;;;;5072120;28;20508;-69
2024/03/19 10:49:51;;;;;;;3.00;0.88;;;;;;;;;;5071421;28;20059;-70
2024/03/19 10:53:09;;;;;;;1.20;0.75;;;20.30;88.10;;;;;;5071862;28;20036;-70
2024/03/19 10:56:14;;;;;;;2.25;0.90;;;20.50;88.20;;;;;;5071656;28;20050;-69
2024/03/19 10:59:19;;;;;;;1.33;0.80;;;;;;;;;;5059320;28;20122;-69
2024/03/19 11:02:23;;;;;;;4.32;1.02;;;;;;;;;;5071859;28;20175;-69
2024/03/19 11:05:28;;;;;;;3.17;1.00;;;;;;;;;;5059306;28;20032;-69
2024/03/19 11:08:37;;;;;;;4.63;1.20;;;;;;;;;;5071525;28;20432;-68
2024/03/19 11:11:42;;;;;;;2.65;1.30;;;;;;;;;;5070939;28;20041;-68
2024/03/19 11:14:54;;;;;;;2.83;1.40;;;19.80;89.60;;;;;;5071619;28;20041;-69
2024/03/19 11:18:16;;;;;;;2.83;0.80;;;20.40;88.30;;;;;;5071326;28;20606;-69
2024/03/19 11:21:22;;;;;;;1.25;0.80;;;;;;;;;;5071337;28;20047;-69
2024/03/19 11:24:40;;;;;;;2.83;0.90;;;21.50;88.60;;;;;;5071331;28;20032;-69
2024/03/19 11:27:51;;;;;;;3.75;0.77;;;19.80;88.20;;;;;;5070606;28;20063;-70
2024/03/19 11:31:04;;;;;;;2.77;0.83;;;17.50;88.20;;;;;;5070896;28;20182;-68
2024/03/19 11:34:14;;;;;;;2.28;0.80;;;19.90;90.10;;;;;;5071031;28;20372;-69
2024/03/19 11:37:19;;;;;;;1.48;0.57;;;;;;;;;;5071130;28;20071;-70
2024/03/19 11:40:24;;;;;;;1.50;0.70;;;;;;;;;;5070213;28;20036;-70
2024/03/19 11:43:29;;;;;;;2.33;1.00;;;19.40;87.80;;;;;;5070854;28;20381;-70
2024/03/19 11:46:33;;;;;;;0.80;0.70;;;;;;;;;;5071013;28;20426;-70
2024/03/19 11:49:41;;;;;;;4.57;1.00;;;;;;;;;;5070724;28;20048;-70
2024/03/19 11:52:51;;;;;;;3.67;0.80;;;19.40;90.60;;;;;;5069691;28;20465;-68
2024/03/19 11:55:56;;;;;;;3.58;0.75;;;19.00;90.40;;;;;;5070765;28;20056;-69
2024/03/19 11:59:01;;;;;;;5.00;0.90;;;;;;;;;;5070683;28;20408;-68
2024/03/19 12:02:07;;;;;;;3.42;1.13;;;20.30;91.70;;;;;;5070485;28;20052;-69
2024/03/19 12:05:13;;;;;;;2.50;0.70;;;21.00;92.00;;;;;;5070959;28;20052;-69
2024/03/19 12:08:18;;;;;;;2.15;0.65;;;18.80;91.50;;;;;;5070297;28;20044;-68
2024/03/19 12:11:23;;;;;;;1.20;0.70;;;;;;;;;;5069807;28;20189;-69
2024/03/19 12:14:28;;;;;;;2.15;0.90;;;;;;;;;;5071063;28;20036;-68
2024/03/19 12:17:33;;;;;;;4.63;0.80;;;;;;;;;;5070853;28;20381;-68
2024/03/19 12:20:37;;;;;;;1.67;0.70;;;;;;;;;;5058431;28;20033;-68
2024/03/19 12:23:42;;;;;;;1.35;1.00;;;;;;;;;;5070806;28;20036;-68
2024/03/19 12:26:50;;;;;;;3.53;1.05;;;18.50;91.70;;;;;;5069829;28;20064;-68
2024/03/19 12:29:54;;;;;;;8.10;1.05;;;;;;;;;;5070784;28;20487;-68
2024/03/19 12:36:09;;;;;;;1.80;1.10;;;17.20;90.70;;;;;;5070266;28;20048;-68
2024/03/19 12:39:13;;;;;;;1.45;1.08;;;;;;;;;;5069341;28;20040;-68
2024/03/19 12:42:18;;;;;;;3.00;1.25;;;;;;;;;;5070403;28;20049;-68
2024/03/19 12:45:22;;;;;;;4.13;1.15;;;;;;;;;;5070424;28;20032;-68
2024/03/19 12:48:26;;;;;;;2.70;1.02;;;;;;;;;;5070412;28;20036;-68
2024/03/19 12:51:31;;;;;;;3.15;1.45;;;;;;;;;;5070460;28;20044;-69
2024/03/19 12:54:35;;;;;;;3.13;1.52;;;;;;;;;;5069998;28;20040;-68
2024/03/19 12:57:40;;;;;;;4.50;1.63;;;;;;;;;;5070278;28;20380;-68
2024/03/19 13:00:46;;;;;;;5.57;1.17;;;;;;;;;;5070382;28;20036;-68
2024/03/19 13:03:50;;;;;;;6.45;1.58;;;;;;;;;;5070058;28;20044;-68
2024/03/19 13:06:54;;;;;;;3.45;1.40;;;;;;;;;;5070185;28;20033;-68
2024/03/19 13:09:59;;;;;;;3.85;1.55;;;;;;;;;;5069513;28;20041;-68
2024/03/19 13:13:03;;;;;;;4.40;1.63;;;;;;;;;;5069692;28;20025;-69
2024/03/19 13:16:07;;;;;;;5.70;1.20;;;;;;;;;;5073840;28;20049;-69
2024/03/19 13:19:12;;;;;;;7.63;1.70;;;;;;;;;;5073665;28;20036;-69
2024/03/19 13:22:17;;;;;;;8.05;2.03;;;19.00;88.60;;;;;;5073547;28;20036;-69
2024/03/19 13:25:21;;;;;;;11.75;2.00;;;;;;;;;;5073818;28;20067;-69
2024/03/19 13:28:26;;;;;;;6.45;1.20;;;;;;;;;;5073453;28;20048;-70
2024/03/19 13:31:30;;;;;;;2.33;1.30;;;;;;;;;;5073681;28;20401;-69
2024/03/19 13:34:34;;;;;;;2.47;1.27;;;;;;;;;;5073552;28;20040;-69
2024/03/19 13:37:39;;;;;;;4.50;1.67;;;;;;;;;;5073664;28;20040;-69
2024/03/19 13:40:44;;;;;;;1.73;1.48;;;;;;;;;;5072473;28;20037;-68
2024/03/19 13:43:48;;;;;;;1.75;1.30;;;;;;;;;;5072290;28;20060;-67
2024/03/19 13:46:52;;;;;;;1.63;1.20;;;;;;;;;;5073076;28;20048;-68
2024/03/19 13:49:56;;;;;;;3.30;1.58;;;;;;;;;;5073339;28;20334;-68
2024/03/19 13:53:01;;;;;;;4.97;1.75;;;;;;;;;;5072353;28;20385;-67
2024/03/19 13:56:05;;;;;;;3.58;1.58;;;;;;;;;;5073124;28;20052;-69
2024/03/19 13:59:10;;;;;;;3.80;1.50;;;;;;;;;;5073158;28;20028;-68
2024/03/19 14:02:14;;;;;;;2.92;1.45;;;;;;;;;;5073013;28;20033;-71
2024/03/19 14:05:18;;;;;;;3.83;1.52;;;19.70;86.20;;;;;;5072669;28;20040;-69
2024/03/19 14:08:23;;;;;;;3.78;1.50;;;;;;;;;;5072008;28;20404;-68
2024/03/19 14:11:27;;;;;;;2.30;1.42;;;;;;;;;;5072761;28;20040;-68
2024/03/19 14:14:33;;;;;;;3.90;1.55;;;;;;;;;;5072890;28;20040;-68
2024/03/19 14:17:39;;;;;;;1.63;1.40;;;;;;;;;;5072282;28;20040;-70
2024/03/19 14:20:44;;;;;;;2.97;2.10;;;;;;;;;;5072855;28;20040;-68
2024/03/19 14:23:51;;;;;;;5.07;2.30;;;19.20;88.30;;;;;;5071908;28;20044;-68
2024/03/19 14:26:56;;;;;;;2.67;1.73;;;;;;;;;;5072207;28;20610;-68
2024/03/19 14:30:00;;;;;;;1.90;1.70;;;;;;;;;;5072804;28;20040;-68
2024/03/19 14:33:07;;;;;;;4.28;2.17;;;;;;;;;;5072132;28;20044;-68
2024/03/19 14:36:11;;;;;;;7.75;1.70;;;;;;;;;;5072232;28;20044;-68
2024/03/19 14:39:19;;;;;;;3.95;1.80;;;;;;;;;;5072381;28;20579;-68
2024/03/19 14:42:23;;;;;;;4.00;1.80;;;;;;;;;;5072105;28;20037;-68
2024/03/19 14:45:31;;;;;;;4.78;1.67;;;;;;;;;;5071796;28;20040;-68
2024/03/19 14:48:35;;;;;;;8.77;2.17;;;;;;;;;;5072164;28;20044;-69
2024/03/19 14:51:39;;;;;;;3.95;2.00;;;;;;;;;;5072146;28;20048;-68
2024/03/19 14:54:43;;;;;;;4.80;2.10;;;;;;;;;;5071941;28;20044;-68
2024/03/19 14:57:48;;;;;;;4.78;1.83;;;;;;;;;;5071892;28;20377;-68
2024/03/19 15:00:52;;;;;;;2.03;1.60;;;;;;;;;;5071862;28;20044;-68
2024/03/19 15:03:56;;;;;;;6.43;2.13;;;;;;;;;;5071042;28;20044;-69
2024/03/19 15:07:01;;;;;;;4.45;2.10;;;;;;;;;;5070545;28;20040;-68
2024/03/19 15:10:05;;;;;;;7.05;2.22;;;;;;;;;;5071763;28;20044;-68
2024/03/19 15:13:10;;;;;;;2.85;1.75;;;;;;;;;;5071298;28;20040;-69
2024/03/19 15:16:15;;;;;;;3.05;1.88;;;;;;;;;;5069871;28;20496;-69
2024/03/19 15:19:20;;;;;;;4.90;1.85;;;;;;;;;;5071443;28;20346;-70
2024/03/19 15:22:24;;;;;;;6.55;1.88;;;;;;;;;;5070509;28;20040;-71
2024/03/19 15:25:28;;;;;;;5.93;2.25;;;;;;;;;;5071464;28;20044;-68
2024/03/19 15:28:33;;;;;;;5.68;2.08;;;;;;;;;;5071363;28;20045;-72
2024/03/19 15:31:37;;;;;;;7.43;2.45;;;;;;;;;;5071460;28;20036;-69
2024/03/19 15:34:42;;;;;;;3.90;2.15;;;;;;;;;;5071371;28;20496;-69
2024/03/19 15:37:48;;;;;;;6.50;2.40;;;;;;;;;;5070915;28;20040;-71
2024/03/19 15:40:53;;;;;;;4.47;1.95;;;;;;;;;;5071036;28;20381;-71
2024/03/19 15:43:57;;;;;;;6.43;2.58;;;;;;;;;;5071118;28;20037;-68
2024/03/19 15:47:01;;;;;;;9.77;5.53;;;;;;;;;;5071003;28;20044;-69
2024/03/19 15:50:07;;;;;;;8.60;4.72;;;18.80;87.00;;;;;;5070523;28;20135;-69
2024/03/19 15:53:11;;;;;;;7.03;2.10;;;;;;;;;;5070918;28;20055;-71
2024/03/19 15:56:16;;;;;;;2.53;2.03;;;;;;;;;;5069682;28;20052;-70
2024/03/19 15:59:21;;;;;;;12.25;5.18;;;;;;;;;;5070847;28;20044;-70
2024/03/19 16:02:25;;;;;;;9.55;3.08;;;;;;;;;;5070535;28;20044;-69
2024/03/19 16:05:29;;;;;;;9.95;3.53;;;;;;;;;;5069639;28;20037;-69
2024/03/19 16:08:34;;;;;;;3.17;2.10;;;;;;;;;;5070552;28;20044;-70
2024/03/19 16:11:38;;;;;;;4.32;1.95;;;;;;;;;;5070638;28;20040;-70
2024/03/19 16:14:42;;;;;;;9.32;3.47;;;;;;;;;;5069109;28;20041;-69
2024/03/19 16:17:46;;;;;;;5.93;2.80;;;;;;;;;;5070620;28;20036;-69
2024/03/19 16:20:51;;;;;;;3.08;2.22;;;;;;;;;;5070170;28;20041;-70
2024/03/19 16:23:56;;;;;;;7.32;2.63;;;;;;;;;;5070465;28;20365;-69
2024/03/19 16:27:03;;;;;;;11.05;4.07;;;19.60;85.50;;;;;;5070270;28;20056;-69
2024/03/19 16:30:10;;;;;;;7.93;3.90;;;;;;;;;;5070351;28;20040;-72
2024/03/19 16:33:14;;;;;;;5.07;3.25;;;;;;;;;;5070287;28;20044;-68
2024/03/19 16:36:18;;;;;;;4.53;3.05;;;;;;;;;;5070037;28;20048;-69
2024/03/19 16:39:23;;;;;;;5.07;3.08;;;;;;;;;;5070562;28;20032;-69
2024/03/19 16:42:29;;;;;;;4.45;3.22;;;;;;;;;;5070414;28;20365;-69
2024/03/19 16:45:33;;;;;;;6.07;2.92;;;;;;;;;;5070501;28;20040;-69
2024/03/19 16:48:38;;;;;;;3.60;3.03;;;;;;;;;;5071042;28;20040;-68
2024/03/19 16:51:42;;;;;;;5.43;2.80;;;;;;;;;;5073858;28;20037;-70
2024/03/19 16:54:46;;;;;;;8.52;3.25;;;;;;;;;;5074460;28;20480;-68
2024/03/19 16:57:50;;;;;;;2.92;2.13;;;;;;;;;;5074344;28;20393;-68
2024/03/19 17:00:55;;;;;;;5.68;3.72;;;;;;;;;;5073781;28;20468;-68
2024/03/19 17:03:59;;;;;;;4.50;2.63;;;;;;;;;;5073648;28;20037;-70
2024/03/19 17:07:03;;;;;;;3.85;2.90;;;;;;;;;;5072742;28;20045;-70
2024/03/19 17:10:08;;;;;;;6.53;3.35;;;18.00;84.20;;;;;;5073846;28;20037;-68
2024/03/19 17:13:12;;;;;;;5.43;2.97;;;;;;;;;;5073800;28;20039;-69
2024/03/19 17:16:17;;;;;;;7.47;3.63;;;;;;;;;;5061611;28;20053;-70
2024/03/19 17:19:22;;;;;;;4.78;3.20;;;;;;;;;;5073973;28;20041;-71
2024/03/19 17:22:26;;;;;;;9.52;3.80;;;;;;;;;;5074329;28;20139;-70
2024/03/19 17:25:30;;;;;;;6.22;3.10;;;;;;;;;;5073870;28;20044;-67
2024/03/19 17:28:34;;;;;;;4.55;3.15;;;;;;;;;;5073584;28;20044;-69
2024/03/19 17:31:40;;;;;;;6.47;3.97;;;;;;;;;;5073694;28;20048;-68
2024/03/19 17:34:45;;;;;;;7.95;3.83;;;18.80;86.40;;;;;;5072945;28;20037;-67
2024/03/19 17:37:49;;;;;;;6.22;3.45;;;;;;;;;;5073805;28;20067;-68
2024/03/19 17:40:53;;;;;;;9.50;3.00;;;;;;;;;;5073717;28;20040;-68
2024/03/19 17:43:57;;;;;;;8.80;3.95;;;;;;;;;;5073052;28;20046;-68
2024/03/19 17:47:02;;;;;;;7.32;3.88;;;;;;;;;;5072980;28;20040;-68
2024/03/19 17:50:10;;;;;;;7.55;3.55;;;17.50;85.70;;;;;;5073165;28;20044;-70
2024/03/19 17:53:15;;;;;;;6.38;3.60;;;;;;;;;;5073190;28;20043;-68
2024/03/19 17:56:19;;;;;;;6.18;4.30;;;;;;;;;;5073003;28;20496;-68
2024/03/19 17:59:24;;;;;;;6.70;3.30;;;;;;;;;;5071320;28;20377;-67
2024/03/19 18:02:28;;;;;;;8.02;2.63;;;;;;;;;;5072952;28;20048;-68
2024/03/19 18:05:36;;;;;;;8.43;2.67;;;;;;;;;;5072139;28;20041;-68